Time;durP1;ratioP1;P1;durP2;ratioP2;P2;SDS_P1;SDS_P2;PMS_P1;PMS_P2;Temp;Humidity;BMP_temperature;BMP_pressure;BME280_temperature;BME280_humidity;BME280_pressure;Samples;Min_cycle;Max_cycle;Signal;HPM_P1;HPM_P2
2021/01/13 00:00:20;;;;;;;1999.90;999.90;;;2.90;99.90;;;;;;4984446;28;20171;-81
2021/01/13 00:02:45;;;;;;;1999.90;999.90;;;2.90;99.90;;;;;;4984902;28;20174;-81
2021/01/13 00:05:13;;;;;;;1999.90;999.90;;;2.90;99.90;;;;;;4984394;28;20213;-81
2021/01/13 00:07:40;;;;;;;1999.90;999.90;;;2.90;99.90;;;;;;4983796;28;20173;-81
2021/01/13 00:10:06;;;;;;;1999.90;999.90;;;2.90;99.90;;;;;;4985168;28;20638;-81
2021/01/13 00:12:32;;;;;;;1999.90;999.90;;;2.90;99.90;;;;;;4984692;28;20281;-81
2021/01/13 00:14:59;;;;;;;1999.90;999.90;;;2.90;99.90;;;;;;5003677;28;20194;-81
2021/01/13 00:17:24;;;;;;;1999.90;999.90;;;2.90;99.90;;;;;;5005817;28;20165;-81
2021/01/13 00:19:50;;;;;;;1999.90;999.90;;;2.90;99.90;;;;;;4988476;28;20642;-81
2021/01/13 00:22:16;;;;;;;1999.90;999.90;;;2.90;99.90;;;;;;5006858;28;20632;-81
2021/01/13 00:24:41;;;;;;;1999.90;999.90;;;2.90;99.90;;;;;;4988597;28;20167;-81
2021/01/13 00:27:07;;;;;;;1999.90;999.90;;;2.90;99.90;;;;;;4988075;28;20660;-82
2021/01/13 00:29:33;;;;;;;1999.90;999.90;;;2.90;99.90;;;;;;5006411;28;20210;-81
2021/01/13 00:32:01;;;;;;;1999.90;999.90;;;2.90;99.90;;;;;;5006009;28;20225;-81
2021/01/13 00:34:28;;;;;;;1999.90;999.90;;;2.80;99.90;;;;;;5005362;28;20393;-81
2021/01/13 00:36:54;;;;;;;1999.90;999.90;;;2.80;99.90;;;;;;5005530;28;20163;-81
2021/01/13 00:39:26;;;;;;;1999.90;999.90;;;2.90;99.90;;;;;;4988115;28;20533;-81
2021/01/13 00:41:54;;;;;;;1999.90;999.90;;;2.80;99.90;;;;;;4988372;28;20646;-82
2021/01/13 00:44:20;;;;;;;1999.90;999.90;;;2.80;99.90;;;;;;5005194;28;20174;-81
2021/01/13 00:46:46;;;;;;;1999.90;999.90;;;2.80;99.90;;;;;;5005827;28;20530;-81
2021/01/13 00:49:12;;;;;;;1999.90;999.90;;;2.80;99.90;;;;;;4987614;28;20198;-82
2021/01/13 00:51:42;;;;;;;1999.90;999.90;;;2.90;99.90;;;;;;4987671;28;20175;-81
2021/01/13 00:54:10;;;;;;;1999.90;999.90;;;2.90;99.90;;;;;;5082562;23;20229;-84
2021/01/13 00:56:44;;;;;;;1999.90;999.90;;;2.90;99.90;;;;;;5023002;28;20287;-83
2021/01/13 00:59:10;;;;;;;1999.90;999.90;;;2.90;99.90;;;;;;5024081;28;20234;-83
2021/01/13 01:01:37;;;;;;;1999.90;999.90;;;2.90;99.90;;;;;;5023679;28;20184;-84
2021/01/13 01:04:05;;;;;;;1999.90;999.90;;;2.90;99.90;;;;;;5023305;28;20166;-83
2021/01/13 01:06:30;;;;;;;1999.90;999.90;;;2.80;99.90;;;;;;5005129;28;20170;-83
2021/01/13 01:08:56;;;;;;;1999.90;999.90;;;2.90;99.90;;;;;;5022418;28;20173;-83
2021/01/13 01:11:47;;;;;;;1999.90;999.90;;;2.90;99.90;;;;;;5006238;28;20165;-83
2021/01/13 01:14:13;;;;;;;1999.90;999.90;;;2.90;99.90;;;;;;5021734;28;20173;-84
2021/01/13 01:16:42;;;;;;;1999.90;999.90;;;2.80;99.90;;;;;;5003902;28;20162;-83
2021/01/13 01:19:10;;;;;;;1999.90;999.90;;;2.90;99.90;;;;;;5021340;28;20185;-84
2021/01/13 01:21:42;;;;;;;1999.90;999.90;;;2.80;99.90;;;;;;5023209;28;20229;-84
2021/01/13 01:24:11;;;;;;;1999.90;999.90;;;2.80;99.90;;;;;;5005115;28;20170;-83
2021/01/13 01:26:47;;;;;;;1999.90;999.90;;;2.80;99.90;;;;;;5020683;28;20245;-83
2021/01/13 01:29:14;;;;;;;1999.90;999.90;;;2.70;99.90;;;;;;5003744;28;20322;-83
2021/01/13 01:31:39;;;;;;;1999.90;999.90;;;2.70;99.90;;;;;;5022701;28;20228;-83
2021/01/13 01:34:08;;;;;;;1999.90;999.90;;;2.60;99.90;;;;;;5022587;28;20640;-83
2021/01/13 01:36:34;;;;;;;1999.90;999.90;;;2.70;99.90;;;;;;5022992;28;20576;-84
2021/01/13 01:39:00;;;;;;;1999.90;999.90;;;2.70;99.90;;;;;;5022379;28;20169;-84
2021/01/13 01:41:25;;;;;;;1999.90;999.90;;;2.70;99.90;;;;;;5022544;28;20211;-83
2021/01/13 01:43:51;;;;;;;1999.90;999.90;;;2.70;99.90;;;;;;5022549;28;20193;-83
2021/01/13 01:46:18;;;;;;;1999.90;999.90;;;2.70;99.90;;;;;;5022605;28;20166;-83
2021/01/13 01:49:01;;;;;;;1999.90;999.90;;;2.70;99.90;;;;;;5003552;28;20201;-83
2021/01/13 01:51:33;;;;;;;1999.90;999.90;;;2.70;99.90;;;;;;5022306;28;20165;-83
2021/01/13 01:54:23;;;;;;;1999.90;999.90;;;2.60;99.90;;;;;;5022148;28;20174;-83
2021/01/13 01:56:52;;;;;;;1999.90;999.90;;;2.50;99.90;;;;;;5004804;28;20169;-83
2021/01/13 01:59:25;;;;;;;1999.90;999.90;;;2.50;99.90;;;;;;5004595;28;20194;-83
2021/01/13 02:01:54;;;;;;;1999.90;999.90;;;2.40;99.90;;;;;;5021796;28;20150;-83
2021/01/13 02:04:30;;;;;;;1999.90;999.90;;;2.50;99.90;;;;;;5021641;28;20570;-83
2021/01/13 02:06:59;;;;;;;1999.90;999.90;;;2.50;99.90;;;;;;5004164;28;20253;-83
2021/01/13 02:09:28;;;;;;;1999.90;999.90;;;2.60;99.90;;;;;;5022347;28;20177;-83
2021/01/13 02:11:57;;;;;;;1999.90;999.90;;;2.60;99.90;;;;;;5022561;28;20212;-83
2021/01/13 02:14:24;;;;;;;1999.90;999.90;;;2.60;99.90;;;;;;5022871;28;20166;-83
2021/01/13 02:16:52;;;;;;;1999.90;999.90;;;2.60;99.90;;;;;;5003240;28;20170;-84
2021/01/13 02:19:50;;;;;;;1999.90;999.90;;;2.60;99.90;;;;;;5022306;28;20172;-83
2021/01/13 02:22:26;;;;;;;1999.90;999.90;;;2.70;99.90;;;;;;5004771;28;20178;-83
2021/01/13 02:24:58;;;;;;;1999.90;999.90;;;2.70;99.90;;;;;;5003870;28;20729;-83
2021/01/13 02:27:58;;;;;;;1999.90;999.90;;;2.70;99.90;;;;;;5020385;28;20160;-83
2021/01/13 02:30:47;;;;;;;1999.90;999.90;;;2.70;99.90;;;;;;5002757;28;20166;-83
2021/01/13 02:33:42;;;;;;;1999.90;999.90;;;2.70;99.90;;;;;;5020680;28;20178;-83
2021/01/13 02:36:20;;;;;;;1999.90;999.90;;;2.70;99.90;;;;;;5019411;28;20533;-83
2021/01/13 02:38:53;;;;;;;1999.90;999.90;;;2.60;99.90;;;;;;5021009;28;20162;-84
2021/01/13 02:41:26;;;;;;;1999.90;999.90;;;2.60;99.90;;;;;;5020603;28;20558;-83
2021/01/13 02:43:56;;;;;;;1999.90;999.90;;;2.60;99.90;;;;;;5004068;28;20170;-83
2021/01/13 02:46:56;;;;;;;1999.90;999.90;;;2.60;99.90;;;;;;5004159;28;20170;-83
2021/01/13 02:49:26;;;;;;;1999.90;999.90;;;2.60;99.90;;;;;;5003777;28;20182;-83
2021/01/13 02:51:56;;;;;;;1999.90;999.90;;;2.60;99.90;;;;;;5020556;28;20198;-83
2021/01/13 02:54:33;;;;;;;1999.90;999.90;;;2.50;99.90;;;;;;5020539;28;20556;-84
2021/01/13 02:57:07;;;;;;;1999.90;999.90;;;2.50;99.90;;;;;;5003066;28;20208;-83
2021/01/13 02:59:36;;;;;;;1999.90;999.90;;;2.60;99.90;;;;;;5021603;28;20158;-83
2021/01/13 03:02:12;;;;;;;1999.90;999.90;;;2.60;99.90;;;;;;5020840;28;20170;-83
2021/01/13 03:04:39;;;;;;;1999.90;999.90;;;2.60;99.90;;;;;;5019942;28;20227;-83
2021/01/13 03:07:10;;;;;;;1999.90;999.90;;;2.60;99.90;;;;;;5020090;28;20503;-83
2021/01/13 03:09:37;;;;;;;1999.90;999.90;;;2.60;99.90;;;;;;5002157;28;20220;-83
2021/01/13 03:12:18;;;;;;;1999.90;999.90;;;2.50;99.90;;;;;;5019126;28;20198;-83
2021/01/13 03:14:55;;;;;;;1999.90;999.90;;;2.60;99.90;;;;;;5021394;28;20169;-83
2021/01/13 03:17:26;;;;;;;1999.90;999.90;;;2.60;99.90;;;;;;5020747;28;20145;-83
2021/01/13 03:20:14;;;;;;;1999.90;999.90;;;2.60;99.90;;;;;;5021140;28;20176;-83
2021/01/13 03:22:58;;;;;;;1999.90;999.90;;;2.60;99.90;;;;;;5020766;28;20225;-83
2021/01/13 03:25:25;;;;;;;1999.90;999.90;;;2.50;99.90;;;;;;5020960;28;20150;-83
2021/01/13 03:27:53;;;;;;;1999.90;999.90;;;2.60;99.90;;;;;;5020097;28;20177;-83
2021/01/13 03:30:20;;;;;;;1999.90;999.90;;;2.60;99.90;;;;;;5003448;28;20172;-84
2021/01/13 03:33:23;;;;;;;1999.90;999.90;;;2.60;99.90;;;;;;5002688;28;20248;-83
2021/01/13 03:36:02;;;;;;;1999.90;999.90;;;2.70;99.90;;;;;;5008146;28;20169;-83
2021/01/13 03:38:29;;;;;;;1999.90;999.90;;;2.70;99.90;;;;;;5021005;28;20739;-83
2021/01/13 03:41:03;;;;;;;1999.90;999.90;;;2.70;99.90;;;;;;5020327;28;20173;-84
2021/01/13 03:43:38;;;;;;;1999.90;999.90;;;2.60;99.90;;;;;;5003559;28;20212;-84
2021/01/13 03:46:09;;;;;;;1999.90;999.90;;;2.60;99.90;;;;;;5020848;28;20153;-83
2021/01/13 03:48:48;;;;;;;1999.90;999.90;;;2.60;99.90;;;;;;5021059;28;20162;-83
2021/01/13 03:51:42;;;;;;;1999.90;999.90;;;2.60;99.90;;;;;;5020399;28;20166;-83
2021/01/13 03:54:10;;;;;;;1999.90;999.90;;;2.50;99.90;;;;;;5002756;28;20225;-83
2021/01/13 03:56:54;;;;;;;1999.90;999.90;;;2.60;99.90;;;;;;5020314;28;20173;-83
2021/01/13 03:59:29;;;;;;;1999.90;999.90;;;2.50;99.90;;;;;;5020824;28;20238;-84
2021/01/13 04:02:01;;;;;;;1999.90;999.90;;;2.60;99.90;;;;;;5003499;28;20220;-83
2021/01/13 04:04:57;;;;;;;1999.90;999.90;;;2.50;99.90;;;;;;5003259;28;20162;-83
2021/01/13 04:07:24;;;;;;;1999.90;999.90;;;2.50;99.90;;;;;;5002590;28;20158;-84
2021/01/13 04:09:52;;;;;;;1999.90;999.90;;;2.60;99.90;;;;;;5002139;28;20173;-83
2021/01/13 04:12:46;;;;;;;1999.90;999.90;;;2.60;99.90;;;;;;5002476;28;20216;-84
2021/01/13 04:15:15;;;;;;;1999.90;999.90;;;2.70;99.90;;;;;;5021513;28;20557;-84
2021/01/13 04:17:46;;;;;;;1999.90;999.90;;;2.60;99.90;;;;;;5019794;28;20165;-83
2021/01/13 04:20:12;;;;;;;1999.90;999.90;;;2.60;99.90;;;;;;5020631;28;20610;-84
2021/01/13 04:22:38;;;;;;;1999.90;999.90;;;2.60;99.90;;;;;;5019040;28;20181;-83
2021/01/13 04:25:05;;;;;;;1999.90;999.90;;;2.60;99.90;;;;;;5018912;28;20208;-84
2021/01/13 04:27:31;;;;;;;1999.90;999.90;;;2.70;99.90;;;;;;5019943;28;20405;-83
2021/01/13 04:29:56;;;;;;;1999.90;999.90;;;2.60;99.90;;;;;;5002652;28;20549;-84
2021/01/13 04:32:22;;;;;;;1999.90;999.90;;;2.60;99.90;;;;;;5018865;28;20506;-84
2021/01/13 04:34:48;;;;;;;1999.90;999.90;;;2.60;99.90;;;;;;5002001;28;20400;-84
2021/01/13 04:37:15;;;;;;;1999.90;999.90;;;2.60;99.90;;;;;;5020454;28;20445;-83
2021/01/13 04:39:41;;;;;;;1999.90;999.90;;;2.50;99.90;;;;;;5019806;28;20411;-83
2021/01/13 04:42:09;;;;;;;1999.90;999.90;;;2.50;99.90;;;;;;5002956;28;20174;-83
2021/01/13 04:45:02;;;;;;;1999.90;999.90;;;2.50;99.90;;;;;;5002154;28;20645;-83
2021/01/13 04:48:02;;;;;;;1999.90;999.90;;;2.60;99.90;;;;;;5001759;28;20177;-83
2021/01/13 04:50:39;;;;;;;1999.90;999.90;;;2.60;99.90;;;;;;5012070;28;20185;-84
2021/01/13 04:53:14;;;;;;;1999.90;999.90;;;2.60;99.90;;;;;;5002098;28;20192;-84
2021/01/13 04:55:45;;;;;;;1999.90;999.90;;;2.60;99.90;;;;;;5003265;28;20261;-84
2021/01/13 04:58:20;;;;;;;1999.90;999.90;;;2.60;99.90;;;;;;5002920;28;20166;-84
2021/01/13 05:01:39;;;;;;;1999.90;999.90;;;2.50;99.90;;;;;;5019441;28;20157;-84
2021/01/13 05:04:24;;;;;;;1999.90;999.90;;;2.50;99.90;;;;;;4982686;28;20738;-83
2021/01/13 05:07:20;;;;;;;1999.90;999.90;;;2.60;99.90;;;;;;5006575;28;20158;-83
2021/01/13 05:10:16;;;;;;;1999.90;999.90;;;2.60;99.90;;;;;;5023852;28;20157;-83
2021/01/13 05:12:45;;;;;;;1999.90;999.90;;;2.50;99.90;;;;;;5002097;28;20197;-83
2021/01/13 05:15:15;;;;;;;1999.90;999.90;;;2.60;99.90;;;;;;5022851;28;20510;-83
2021/01/13 05:18:01;;;;;;;1999.90;999.90;;;2.60;99.90;;;;;;5006517;28;20157;-84
2021/01/13 05:20:29;;;;;;;1999.90;999.90;;;2.60;99.90;;;;;;5023250;28;20205;-83
2021/01/13 05:22:56;;;;;;;1999.90;999.90;;;2.60;99.90;;;;;;5021817;28;20198;-83
2021/01/13 05:25:40;;;;;;;1999.90;999.90;;;2.70;99.90;;;;;;5023050;28;20166;-83
2021/01/13 05:28:14;;;;;;;1999.90;999.90;;;2.70;99.90;;;;;;5003928;28;20196;-83
2021/01/13 05:30:45;;;;;;;1999.90;999.90;;;2.80;99.90;;;;;;5003808;28;20173;-84
2021/01/13 05:33:14;;;;;;;1999.90;999.90;;;2.70;99.90;;;;;;5022054;28;20182;-83
2021/01/13 05:35:46;;;;;;;1999.90;999.90;;;2.70;99.90;;;;;;5022222;28;20158;-83
2021/01/13 05:38:37;;;;;;;1999.90;999.90;;;2.70;99.90;;;;;;5003461;28;20158;-84
2021/01/13 05:41:10;;;;;;;1999.90;999.90;;;2.70;99.90;;;;;;5005241;28;20178;-83
2021/01/13 05:43:50;;;;;;;1999.90;999.90;;;2.70;99.90;;;;;;5004578;28;20683;-85
2021/01/13 05:46:17;;;;;;;1999.90;999.90;;;2.70;99.90;;;;;;5022028;28;20162;-84
2021/01/13 05:48:47;;;;;;;1999.90;999.90;;;2.80;99.90;;;;;;5005433;28;20169;-84
2021/01/13 05:51:13;;;;;;;1999.90;999.90;;;2.70;99.90;;;;;;5021964;28;20154;-84
2021/01/13 05:53:50;;;;;;;1999.90;999.90;;;2.80;99.90;;;;;;5004022;28;20209;-84
2021/01/13 05:56:17;;;;;;;1999.90;999.90;;;2.70;99.90;;;;;;5004730;28;20632;-84
2021/01/13 05:58:43;;;;;;;1999.90;999.90;;;2.70;99.90;;;;;;5021326;28;20166;-84
2021/01/13 06:01:28;;;;;;;1999.90;999.90;;;2.70;99.90;;;;;;5004476;28;20201;-84
2021/01/13 06:03:55;;;;;;;1999.90;999.90;;;2.70;99.90;;;;;;5004850;28;20248;-84
2021/01/13 06:06:25;;;;;;;1999.90;999.90;;;2.70;99.90;;;;;;5004174;28;20723;-84
2021/01/13 06:08:53;;;;;;;1999.90;999.90;;;2.70;99.90;;;;;;5022047;28;20193;-84
2021/01/13 06:11:20;;;;;;;1999.90;999.90;;;2.70;99.90;;;;;;4987696;28;20173;-84
2021/01/13 06:13:47;;;;;;;1999.90;999.90;;;2.80;99.90;;;;;;5021620;28;20196;-84
2021/01/13 06:16:16;;;;;;;1999.90;999.90;;;2.70;99.90;;;;;;5004404;28;20200;-84
2021/01/13 06:18:44;;;;;;;1999.90;999.90;;;2.80;99.90;;;;;;5021619;28;20166;-83
2021/01/13 06:21:11;;;;;;;1999.90;999.90;;;2.80;99.90;;;;;;5020835;28;20166;-84
2021/01/13 06:23:49;;;;;;;1999.90;999.90;;;2.80;99.90;;;;;;5003495;28;20170;-84
2021/01/13 06:26:16;;;;;;;1999.90;999.90;;;2.80;99.90;;;;;;5021027;28;20166;-84
2021/01/13 06:29:00;;;;;;;1999.90;999.90;;;2.90;99.90;;;;;;5002794;28;20181;-83
2021/01/13 06:31:27;;;;;;;1999.90;999.90;;;2.90;99.90;;;;;;5021022;28;20169;-83
2021/01/13 06:34:26;;;;;;;1999.90;999.90;;;2.90;99.90;;;;;;5002798;28;20197;-83
2021/01/13 06:37:33;;;;;;;1999.90;999.90;;;2.90;99.90;;;;;;5019447;28;20158;-83
2021/01/13 06:40:11;;;;;;;1999.90;999.90;;;2.90;99.90;;;;;;4981083;28;20237;-84
2021/01/13 06:42:36;;;;;;;1999.90;999.90;;;2.90;99.90;;;;;;5002877;28;20158;-83
2021/01/13 06:45:03;;;;;;;1999.90;999.90;;;2.90;99.90;;;;;;5002616;28;20192;-83
2021/01/13 06:47:31;;;;;;;1999.90;999.90;;;2.90;99.90;;;;;;5020845;28;20409;-84
2021/01/13 06:49:58;;;;;;;1999.90;999.90;;;2.90;99.90;;;;;;5020812;28;20181;-84
2021/01/13 06:52:32;;;;;;;1999.90;999.90;;;2.80;99.90;;;;;;5019451;28;20237;-84
2021/01/13 06:54:59;;;;;;;1999.90;999.90;;;2.90;99.90;;;;;;5084170;23;20237;-85
2021/01/13 06:57:30;;;;;;;1999.90;999.90;;;2.80;99.90;;;;;;5017425;28;20158;-85
2021/01/13 06:59:57;;;;;;;1999.90;999.90;;;2.80;99.90;;;;;;4999264;28;20170;-86
2021/01/13 07:02:34;;;;;;;1999.90;999.90;;;2.90;99.90;;;;;;5017861;28;20185;-85
2021/01/13 07:04:59;;;;;;;1999.90;999.90;;;2.90;99.90;;;;;;5000054;28;20170;-85
2021/01/13 07:07:25;;;;;;;1999.90;999.90;;;2.80;99.90;;;;;;4999344;28;20180;-85
2021/01/13 07:09:51;;;;;;;1999.90;999.90;;;2.90;99.90;;;;;;5016898;28;20249;-85
2021/01/13 07:12:23;;;;;;;1999.90;999.90;;;2.90;99.90;;;;;;5017281;28;20815;-85
2021/01/13 07:14:51;;;;;;;1999.90;999.90;;;2.80;99.90;;;;;;5017185;28;20572;-85
2021/01/13 07:17:22;;;;;;;1999.90;999.90;;;2.80;99.90;;;;;;5017165;28;20244;-85
2021/01/13 07:19:49;;;;;;;1999.90;999.90;;;2.80;99.90;;;;;;5017291;28;20161;-86
2021/01/13 07:22:16;;;;;;;1999.90;999.90;;;2.80;99.90;;;;;;5000848;28;20227;-86
2021/01/13 07:24:43;;;;;;;1999.90;999.90;;;2.80;99.90;;;;;;5017534;28;20181;-86
2021/01/13 07:27:10;;;;;;;1999.90;999.90;;;2.80;99.90;;;;;;5018500;28;20166;-86
2021/01/13 07:29:36;;;;;;;1999.90;999.90;;;2.80;99.90;;;;;;5018120;28;20181;-86
2021/01/13 07:32:03;;;;;;;1999.90;999.90;;;2.80;99.90;;;;;;5018348;28;20557;-86
2021/01/13 07:34:34;;;;;;;1999.90;999.90;;;2.70;99.90;;;;;;5018889;28;20181;-86
2021/01/13 07:37:13;;;;;;;1999.90;999.90;;;2.80;99.90;;;;;;5001031;28;20166;-86
2021/01/13 07:39:57;;;;;;;1999.90;999.90;;;2.80;99.90;;;;;;5018358;28;20146;-86
2021/01/13 07:42:37;;;;;;;1999.90;999.90;;;2.70;99.90;;;;;;5002106;28;20185;-85
2021/01/13 07:45:08;;;;;;;1999.90;999.90;;;2.80;99.90;;;;;;5001452;28;20166;-86
2021/01/13 07:47:55;;;;;;;1999.90;999.90;;;2.80;99.90;;;;;;5019494;28;20225;-86
2021/01/13 07:50:21;;;;;;;1999.90;999.90;;;2.80;99.90;;;;;;5017499;28;20636;-86
2021/01/13 07:52:52;;;;;;;1999.90;999.90;;;2.80;99.90;;;;;;5017777;28;20194;-85
2021/01/13 07:55:23;;;;;;;1999.90;999.90;;;2.80;99.90;;;;;;5017527;28;20201;-86
2021/01/13 07:57:50;;;;;;;1999.90;999.90;;;2.80;99.90;;;;;;5018067;28;20172;-86
2021/01/13 08:00:33;;;;;;;1999.90;999.90;;;2.80;99.90;;;;;;5017637;28;20162;-86
2021/01/13 08:03:25;;;;;;;1999.90;999.90;;;2.80;99.90;;;;;;5016977;28;20142;-86
2021/01/13 08:06:09;;;;;;;1999.90;999.90;;;2.80;99.90;;;;;;5016862;28;20576;-85
2021/01/13 08:09:18;;;;;;;1999.90;999.90;;;2.80;99.90;;;;;;5017335;28;20621;-86
2021/01/13 08:12:09;;;;;;;1999.90;999.90;;;2.90;99.90;;;;;;4994901;28;20248;-85
2021/01/13 08:15:10;;;;;;;1999.90;999.90;;;2.90;99.90;;;;;;5000699;28;20245;-85
2021/01/13 08:18:02;;;;;;;1999.90;999.90;;;2.90;99.90;;;;;;4999458;28;20200;-85
2021/01/13 08:21:09;;;;;;;1999.90;999.90;;;2.90;99.90;;;;;;4999469;28;20158;-86
2021/01/13 08:24:25;;;;;;;1999.90;999.90;;;2.90;99.90;;;;;;5016940;28;20185;-86
2021/01/13 08:26:22;;;;;;;1999.90;999.90;;;2.90;99.90;;;;;;5002751;28;20177;-85
2021/01/13 08:28:50;;;;;;;1999.90;999.90;;;3.10;99.90;;;;;;5017054;28;20192;-85
2021/01/13 08:31:22;;;;;;;1999.90;999.90;;;3.00;99.90;;;;;;4997992;28;20170;-84
2021/01/13 08:33:50;;;;;;;1999.90;999.90;;;3.10;99.90;;;;;;4996367;28;20198;-84
2021/01/13 08:36:19;;;;;;;1999.90;999.90;;;3.20;99.90;;;;;;4998070;28;20173;-84
2021/01/13 08:39:14;;;;;;;1999.90;999.90;;;3.20;99.90;;;;;;4999622;28;20165;-83
2021/01/13 08:41:44;;;;;;;1999.90;999.90;;;3.20;99.90;;;;;;5017105;28;20147;-83
2021/01/13 08:44:17;;;;;;;1999.90;999.90;;;3.20;99.90;;;;;;5017539;28;20149;-84
2021/01/13 08:47:07;;;;;;;1999.90;999.90;;;3.20;99.90;;;;;;4999991;28;20166;-84
2021/01/13 08:49:33;;;;;;;1999.90;999.90;;;3.30;99.90;;;;;;5011845;28;20174;-83
2021/01/13 08:52:14;;;;;;;1999.90;999.90;;;3.30;99.90;;;;;;5017895;28;20212;-84
2021/01/13 08:54:56;;;;;;;1999.90;999.90;;;3.30;99.90;;;;;;5002416;28;20185;-86
2021/01/13 08:57:23;;;;;;;1999.90;999.90;;;3.30;99.90;;;;;;5021063;28;20166;-86
2021/01/13 08:59:49;;;;;;;1999.90;999.90;;;3.40;99.90;;;;;;5003235;28;20174;-86
2021/01/13 09:02:23;;;;;;;1999.90;999.90;;;3.40;99.90;;;;;;5021354;28;20170;-86
2021/01/13 09:04:59;;;;;;;1999.90;999.90;;;3.50;99.90;;;;;;5003166;28;20587;-86
2021/01/13 09:07:26;;;;;;;1999.90;999.90;;;3.50;99.90;;;;;;5021262;28;20165;-86
2021/01/13 09:10:06;;;;;;;1999.90;999.90;;;3.50;99.90;;;;;;5003208;28;20170;-85
2021/01/13 09:12:36;;;;;;;1999.90;999.90;;;3.60;99.90;;;;;;5021353;28;20193;-86
2021/01/13 09:15:07;;;;;;;1999.90;999.90;;;3.60;99.90;;;;;;5021736;28;20177;-87
2021/01/13 09:17:34;;;;;;;1999.90;999.90;;;3.70;99.90;;;;;;5022437;28;20177;-86
2021/01/13 09:20:05;;;;;;;1999.90;999.90;;;3.70;99.90;;;;;;5020783;28;20521;-86
2021/01/13 09:23:02;;;;;;;1999.90;999.90;;;3.80;99.90;;;;;;5002820;28;20184;-86
2021/01/13 09:25:33;;;;;;;1999.90;999.90;;;3.80;99.90;;;;;;5019328;28;20675;-86
2021/01/13 09:28:00;;;;;;;1999.90;999.90;;;3.90;99.90;;;;;;5018280;28;20605;-86
2021/01/13 09:30:41;;;;;;;1999.90;999.90;;;3.90;99.90;;;;;;5001183;28;20174;-86
2021/01/13 09:33:18;;;;;;;1999.90;999.90;;;4.00;99.90;;;;;;5017571;28;20205;-87
2021/01/13 09:35:58;;;;;;;1999.90;999.90;;;4.00;99.90;;;;;;5016770;28;20556;-86
2021/01/13 09:38:30;;;;;;;1999.90;999.90;;;4.20;99.90;;;;;;4998823;28;20158;-86
2021/01/13 09:41:03;;;;;;;1999.90;999.90;;;4.30;99.90;;;;;;5017242;28;20180;-86
2021/01/13 09:43:47;;;;;;;1999.90;999.90;;;4.30;99.90;;;;;;5017568;28;20159;-86
2021/01/13 09:46:22;;;;;;;1999.90;999.90;;;4.30;99.90;;;;;;5000898;28;20573;-86
2021/01/13 09:49:14;;;;;;;1999.90;999.90;;;4.30;99.90;;;;;;5019271;28;20169;-86
2021/01/13 09:51:41;;;;;;;1999.90;999.90;;;4.30;99.90;;;;;;5019621;28;20616;-86
2021/01/13 09:54:08;;;;;;;1999.90;999.90;;;4.30;99.90;;;;;;5003175;28;20538;-86
2021/01/13 09:56:36;;;;;;;1999.90;999.90;;;4.40;99.90;;;;;;5003930;28;20165;-86
2021/01/13 09:59:03;;;;;;;1999.90;999.90;;;4.40;99.90;;;;;;5020981;28;20551;-86
2021/01/13 10:01:37;;;;;;;1999.90;999.90;;;4.50;99.90;;;;;;5003583;28;20256;-86
2021/01/13 10:04:12;;;;;;;1999.90;999.90;;;4.60;99.90;;;;;;4988509;28;20181;-86
2021/01/13 10:06:43;;;;;;;1999.90;999.90;;;4.60;99.90;;;;;;5020938;28;20640;-85
2021/01/13 10:09:13;;;;;;;1999.90;999.90;;;4.70;99.90;;;;;;5002987;28;20181;-86
2021/01/13 10:11:40;;;;;;;1999.90;999.90;;;4.70;99.90;;;;;;5021142;28;20157;-85
2021/01/13 10:14:07;;;;;;;1999.90;999.90;;;4.80;99.90;;;;;;5020689;28;20186;-86
2021/01/13 10:16:44;;;;;;;1999.90;999.90;;;4.80;99.90;;;;;;5021169;28;20560;-86
2021/01/13 10:19:11;;;;;;;1999.90;999.90;;;4.90;99.90;;;;;;5020360;28;20150;-86
2021/01/13 10:21:41;;;;;;;1999.90;999.90;;;4.90;99.90;;;;;;5020842;28;20215;-86
2021/01/13 10:24:11;;;;;;;1999.90;999.90;;;5.00;99.90;;;;;;5003084;28;20170;-86
2021/01/13 10:26:38;;;;;;;1999.90;999.90;;;5.00;99.90;;;;;;5004099;28;20170;-85
2021/01/13 10:29:05;;;;;;;1999.90;999.90;;;5.00;99.90;;;;;;5003562;28;20173;-86
2021/01/13 10:31:32;;;;;;;1999.90;999.90;;;5.00;99.90;;;;;;5019365;28;20177;-86
2021/01/13 10:33:58;;;;;;;1999.90;999.90;;;5.00;99.90;;;;;;5017783;28;20287;-86
2021/01/13 10:36:30;;;;;;;1999.90;999.90;;;5.00;99.90;;;;;;5001631;28;20196;-86
2021/01/13 10:39:05;;;;;;;1999.90;999.90;;;5.00;99.90;;;;;;5001882;28;20165;-87
2021/01/13 10:42:02;;;;;;;1999.90;999.90;;;4.90;99.90;;;;;;5020518;28;20223;-86
2021/01/13 10:44:29;;;;;;;1999.90;999.90;;;4.90;99.90;;;;;;5002348;28;20185;-86
2021/01/13 10:46:56;;;;;;;1999.90;999.90;;;5.00;99.90;;;;;;5002161;28;20714;-86
2021/01/13 10:49:40;;;;;;;1999.90;999.90;;;5.00;99.90;;;;;;4999986;28;20185;-85
2021/01/13 10:52:11;;;;;;;1999.90;999.90;;;5.00;99.90;;;;;;5001397;28;20162;-86
2021/01/13 10:54:49;;;;;;;1999.90;999.90;;;5.00;99.90;;;;;;5019277;28;20174;-86
2021/01/13 10:57:17;;;;;;;1999.90;999.90;;;5.00;99.90;;;;;;5002390;28;20193;-86
2021/01/13 10:59:44;;;;;;;1999.90;999.90;;;5.00;99.90;;;;;;5015143;28;20162;-85
2021/01/13 11:02:12;;;;;;;1999.90;999.90;;;5.00;99.90;;;;;;4997863;28;20181;-85
2021/01/13 11:04:45;;;;;;;1999.90;999.90;;;5.00;99.90;;;;;;5014993;28;20625;-86
2021/01/13 11:07:19;;;;;;;1999.90;999.90;;;5.10;99.90;;;;;;5015920;28;20154;-85
2021/01/13 11:09:52;;;;;;;1999.90;999.90;;;5.10;99.90;;;;;;5015807;28;20162;-85
2021/01/13 11:12:23;;;;;;;1999.90;999.90;;;5.10;99.90;;;;;;5015211;28;20613;-85
2021/01/13 11:15:03;;;;;;;1999.90;999.90;;;5.20;99.90;;;;;;4982095;28;20609;-85
2021/01/13 11:17:32;;;;;;;1999.90;999.90;;;5.30;99.90;;;;;;5018297;28;20154;-86
2021/01/13 11:19:59;;;;;;;1999.90;999.90;;;5.40;99.90;;;;;;5001303;28;20224;-86
2021/01/13 11:22:44;;;;;;;1999.90;999.90;;;5.40;99.90;;;;;;5018821;28;20173;-86
2021/01/13 11:25:39;;;;;;;1999.90;999.90;;;5.40;99.90;;;;;;5019313;28;20149;-86
2021/01/13 11:28:07;;;;;;;1999.90;999.90;;;5.40;99.90;;;;;;5001059;28;20170;-85
2021/01/13 11:30:40;;;;;;;1999.90;999.90;;;5.40;99.90;;;;;;5017463;28;20532;-85
2021/01/13 11:33:08;;;;;;;1999.90;999.90;;;5.40;99.90;;;;;;5018054;28;20174;-86
2021/01/13 11:35:45;;;;;;;1999.90;999.90;;;5.40;99.90;;;;;;4999280;28;20208;-87
2021/01/13 11:38:40;;;;;;;1999.90;999.90;;;5.40;99.90;;;;;;5018237;28;20216;-86
2021/01/13 11:41:31;;;;;;;1999.90;999.90;;;5.40;99.90;;;;;;5019702;28;20154;-86
2021/01/13 11:44:29;;;;;;;1999.90;999.90;;;5.40;99.90;;;;;;5017893;28;20165;-87
2021/01/13 11:47:20;;;;;;;1999.90;999.90;;;5.40;99.90;;;;;;5017186;28;20174;-86
2021/01/13 11:49:54;;;;;;;1999.90;999.90;;;5.40;99.90;;;;;;4998931;28;20184;-85
2021/01/13 11:52:22;;;;;;;1999.90;999.90;;;5.40;99.90;;;;;;5016428;28;20197;-85
2021/01/13 11:54:51;;;;;;;1999.90;999.90;;;5.40;99.90;;;;;;5000019;28;20202;-85
2021/01/13 11:57:21;;;;;;;1999.90;999.90;;;5.40;99.90;;;;;;4999048;28;20165;-85
2021/01/13 11:59:49;;;;;;;1999.90;999.90;;;5.40;99.90;;;;;;5017680;28;20210;-86
2021/01/13 12:02:36;;;;;;;1999.90;999.90;;;5.40;99.90;;;;;;5018263;28;20172;-85
2021/01/13 12:05:02;;;;;;;1999.90;999.90;;;5.40;99.90;;;;;;5000350;28;20165;-86
2021/01/13 12:07:28;;;;;;;1999.90;999.90;;;5.30;99.90;;;;;;5000016;28;20185;-85
2021/01/13 12:10:11;;;;;;;1999.90;999.90;;;5.30;99.90;;;;;;5017591;28;20165;-86
2021/01/13 12:12:38;;;;;;;1999.90;999.90;;;5.30;99.90;;;;;;5004384;28;20189;-85
2021/01/13 12:15:09;;;;;;;1999.90;999.90;;;5.30;99.90;;;;;;5021720;28;20162;-86
2021/01/13 12:17:48;;;;;;;1999.90;999.90;;;5.30;99.90;;;;;;5021478;28;20158;-86
2021/01/13 12:20:14;;;;;;;1999.90;999.90;;;5.30;99.90;;;;;;5004413;28;20173;-86
2021/01/13 12:22:40;;;;;;;1999.90;999.90;;;5.30;99.90;;;;;;5004036;28;20241;-86
2021/01/13 12:25:22;;;;;;;1999.90;999.90;;;5.30;99.90;;;;;;5004957;28;20237;-85
2021/01/13 12:27:48;;;;;;;1999.90;999.90;;;5.30;99.90;;;;;;5021225;28;20158;-86
2021/01/13 12:30:15;;;;;;;1999.90;999.90;;;5.30;99.90;;;;;;5021648;28;20222;-85
2021/01/13 12:32:41;;;;;;;1999.90;999.90;;;5.40;99.90;;;;;;5003217;28;20695;-86
2021/01/13 12:35:13;;;;;;;1999.90;999.90;;;5.40;99.90;;;;;;5004002;28;20260;-86
2021/01/13 12:37:49;;;;;;;1999.90;999.90;;;5.50;99.90;;;;;;5022295;28;20142;-86
2021/01/13 12:40:30;;;;;;;1999.90;999.90;;;5.50;99.90;;;;;;5021473;28;20154;-86